sensor_id;sensor_type;location;lat;lon;timestamp;pressure;altitude;pressure_sealevel;temperature;humidity
18819;BME280;9537;45.594;9.294;2023-09-07T00:00:12;100135.38;;;20.66;72.17
18819;BME280;9537;45.594;9.294;2023-09-07T00:01:13;100135.38;;;20.66;72.07
18819;BME280;9537;45.594;9.294;2023-09-07T00:02:14;100140.97;;;20.65;72.24
18819;BME280;9537;45.594;9.294;2023-09-07T00:03:15;100130.47;;;20.63;71.70
18819;BME280;9537;45.594;9.294;2023-09-07T00:04:17;100135.22;;;20.61;72.06
18819;BME280;9537;45.594;9.294;2023-09-07T00:05:18;100125.09;;;20.63;72.25
18819;BME280;9537;45.594;9.294;2023-09-07T00:06:19;100132.31;;;20.63;72.37
18819;BME280;9537;45.594;9.294;2023-09-07T00:07:20;100128.00;;;20.62;72.58
18819;BME280;9537;45.594;9.294;2023-09-07T00:08:22;100130.94;;;20.60;72.29
18819;BME280;9537;45.594;9.294;2023-09-07T00:09:24;100130.53;;;20.57;72.61
18819;BME280;9537;45.594;9.294;2023-09-07T00:10:27;100133.88;;;20.52;72.73
18819;BME280;9537;45.594;9.294;2023-09-07T00:11:27;100135.38;;;20.48;72.58
18819;BME280;9537;45.594;9.294;2023-09-07T00:12:29;100127.56;;;20.46;72.67
18819;BME280;9537;45.594;9.294;2023-09-07T00:13:31;100132.22;;;20.51;72.73
18819;BME280;9537;45.594;9.294;2023-09-07T00:14:33;100127.31;;;20.48;72.46
18819;BME280;9537;45.594;9.294;2023-09-07T00:15:36;100138.03;;;20.48;72.53
18819;BME280;9537;45.594;9.294;2023-09-07T00:16:38;100134.19;;;20.44;72.74
18819;BME280;9537;45.594;9.294;2023-09-07T00:17:39;100134.66;;;20.41;72.79
18819;BME280;9537;45.594;9.294;2023-09-07T00:18:40;100136.38;;;20.35;73.06
18819;BME280;9537;45.594;9.294;2023-09-07T00:19:41;100135.31;;;20.36;73.15
18819;BME280;9537;45.594;9.294;2023-09-07T00:20:42;100138.81;;;20.37;73.14
18819;BME280;9537;45.594;9.294;2023-09-07T00:21:43;100136.13;;;20.37;73.46
18819;BME280;9537;45.594;9.294;2023-09-07T00:22:44;100134.13;;;20.32;73.38
18819;BME280;9537;45.594;9.294;2023-09-07T00:23:46;100135.75;;;20.33;73.11
18819;BME280;9537;45.594;9.294;2023-09-07T00:24:46;100134.94;;;20.33;73.25
18819;BME280;9537;45.594;9.294;2023-09-07T00:25:48;100134.94;;;20.33;73.15
18819;BME280;9537;45.594;9.294;2023-09-07T00:26:49;100133.53;;;20.30;73.54
18819;BME280;9537;45.594;9.294;2023-09-07T00:27:52;100132.25;;;20.33;73.62
18819;BME280;9537;45.594;9.294;2023-09-07T00:28:54;100138.44;;;20.33;73.75
18819;BME280;9537;45.594;9.294;2023-09-07T00:29:56;100132.25;;;20.33;73.88
18819;BME280;9537;45.594;9.294;2023-09-07T00:30:57;100128.53;;;20.34;73.34
18819;BME280;9537;45.594;9.294;2023-09-07T00:31:58;100124.44;;;20.31;73.57
18819;BME280;9537;45.594;9.294;2023-09-07T00:32:59;100139.50;;;20.32;73.39
18819;BME280;9537;45.594;9.294;2023-09-07T00:34:01;100131.81;;;20.36;72.84
18819;BME280;9537;45.594;9.294;2023-09-07T00:35:02;100130.41;;;20.33;73.20
18819;BME280;9537;45.594;9.294;2023-09-07T00:36:04;100126.91;;;20.33;73.29
18819;BME280;9537;45.594;9.294;2023-09-07T00:37:05;100131.91;;;20.29;73.11
18819;BME280;9537;45.594;9.294;2023-09-07T00:38:07;100136.44;;;20.29;73.38
18819;BME280;9537;45.594;9.294;2023-09-07T00:39:07;100135.84;;;20.27;73.70
18819;BME280;9537;45.594;9.294;2023-09-07T00:40:10;100134.59;;;20.29;73.27
18819;BME280;9537;45.594;9.294;2023-09-07T00:41:12;100138.91;;;20.30;73.58
18819;BME280;9537;45.594;9.294;2023-09-07T00:42:14;100133.38;;;20.25;73.69
18819;BME280;9537;45.594;9.294;2023-09-07T00:43:15;100131.75;;;20.24;73.49
18819;BME280;9537;45.594;9.294;2023-09-07T00:44:17;100129.72;;;20.19;73.52
18819;BME280;9537;45.594;9.294;2023-09-07T00:45:19;100137.56;;;20.21;73.65
18819;BME280;9537;45.594;9.294;2023-09-07T00:46:20;100132.66;;;20.18;73.64
18819;BME280;9537;45.594;9.294;2023-09-07T00:47:22;100135.63;;;20.10;74.08
18819;BME280;9537;45.594;9.294;2023-09-07T00:48:23;100137.25;;;20.11;73.95
18819;BME280;9537;45.594;9.294;2023-09-07T00:49:24;100139.34;;;20.09;74.06
18819;BME280;9537;45.594;9.294;2023-09-07T00:50:26;100137.50;;;20.09;74.17
18819;BME280;9537;45.594;9.294;2023-09-07T00:51:27;100134.66;;;20.04;74.24
18819;BME280;9537;45.594;9.294;2023-09-07T00:52:29;100136.13;;;20.00;74.23
18819;BME280;9537;45.594;9.294;2023-09-07T00:53:30;100135.09;;;20.01;74.36
18819;BME280;9537;45.594;9.294;2023-09-07T00:54:31;100143.31;;;20.06;74.24
18819;BME280;9537;45.594;9.294;2023-09-07T00:55:33;100136.91;;;20.07;74.10
18819;BME280;9537;45.594;9.294;2023-09-07T00:56:35;100135.25;;;20.06;74.39
18819;BME280;9537;45.594;9.294;2023-09-07T00:57:37;100137.94;;;20.06;74.29
18819;BME280;9537;45.594;9.294;2023-09-07T00:58:39;100130.13;;;20.05;74.44
18819;BME280;9537;45.594;9.294;2023-09-07T00:59:43;100127.44;;;20.05;74.24
18819;BME280;9537;45.594;9.294;2023-09-07T01:00:43;100132.78;;;20.05;74.35
18819;BME280;9537;45.594;9.294;2023-09-07T01:01:44;100132.78;;;20.05;74.38
18819;BME280;9537;45.594;9.294;2023-09-07T01:02:46;100127.66;;;20.03;74.20
18819;BME280;9537;45.594;9.294;2023-09-07T01:03:47;100127.06;;;20.01;74.48
18819;BME280;9537;45.594;9.294;2023-09-07T01:04:50;100128.69;;;20.02;74.05
18819;BME280;9537;45.594;9.294;2023-09-07T01:05:56;100127.06;;;20.01;74.07
18819;BME280;9537;45.594;9.294;2023-09-07T01:07:03;100120.88;;;20.00;73.92
18819;BME280;9537;45.594;9.294;2023-09-07T01:08:11;100121.47;;;20.02;73.98
18819;BME280;9537;45.594;9.294;2023-09-07T01:09:19;100126.81;;;20.02;74.21
18819;BME280;9537;45.594;9.294;2023-09-07T01:10:21;100118.78;;;20.02;74.15
18819;BME280;9537;45.594;9.294;2023-09-07T01:11:23;100125.81;;;20.03;74.17
18819;BME280;9537;45.594;9.294;2023-09-07T01:12:24;100122.88;;;20.05;73.84
18819;BME280;9537;45.594;9.294;2023-09-07T01:13:24;100127.06;;;20.01;74.18
18819;BME280;9537;45.594;9.294;2023-09-07T01:14:26;100124.38;;;20.01;74.24
18819;BME280;9537;45.594;9.294;2023-09-07T01:15:28;100122.72;;;20.00;74.36
18819;BME280;9537;45.594;9.294;2023-09-07T01:16:30;100118.06;;;19.95;74.38
18819;BME280;9537;45.594;9.294;2023-09-07T01:17:34;100124.69;;;19.93;74.53
18819;BME280;9537;45.594;9.294;2023-09-07T01:18:36;100126.91;;;19.96;74.04
18819;BME280;9537;45.594;9.294;2023-09-07T01:19:39;100127.50;;;19.98;74.12
18819;BME280;9537;45.594;9.294;2023-09-07T01:20:41;100132.28;;;19.96;74.32
18819;BME280;9537;45.594;9.294;2023-09-07T01:21:45;100127.97;;;19.95;74.32
18819;BME280;9537;45.594;9.294;2023-09-07T01:22:47;100130.41;;;19.96;74.54
18819;BME280;9537;45.594;9.294;2023-09-07T01:23:49;100131.66;;;19.94;74.33
18819;BME280;9537;45.594;9.294;2023-09-07T01:24:52;100129.22;;;19.92;74.62
18819;BME280;9537;45.594;9.294;2023-09-07T01:25:55;100116.47;;;19.88;74.74
18819;BME280;9537;45.594;9.294;2023-09-07T01:26:56;100126.19;;;19.89;74.34
18819;BME280;9537;45.594;9.294;2023-09-07T01:27:58;100121.69;;;19.83;74.53
18819;BME280;9537;45.594;9.294;2023-09-07T01:29:00;100130.97;;;19.80;74.83
18819;BME280;9537;45.594;9.294;2023-09-07T01:30:03;100124.22;;;19.77;74.79
18819;BME280;9537;45.594;9.294;2023-09-07T01:31:04;100122.81;;;19.75;75.02
18819;BME280;9537;45.594;9.294;2023-09-07T01:32:06;100121.75;;;19.76;75.16
18819;BME280;9537;45.594;9.294;2023-09-07T01:33:06;100126.91;;;19.77;75.13
18819;BME280;9537;45.594;9.294;2023-09-07T01:34:09;100124.00;;;19.79;74.84
18819;BME280;9537;45.594;9.294;2023-09-07T01:35:11;100122.56;;;19.76;74.89
18819;BME280;9537;45.594;9.294;2023-09-07T01:36:13;100129.78;;;19.76;74.94
18819;BME280;9537;45.594;9.294;2023-09-07T01:37:15;100122.66;;;19.70;75.17
18819;BME280;9537;45.594;9.294;2023-09-07T01:38:16;100128.22;;;19.68;75.31
18819;BME280;9537;45.594;9.294;2023-09-07T01:39:17;100125.09;;;19.71;75.32
18819;BME280;9537;45.594;9.294;2023-09-07T01:40:19;100127.19;;;19.69;75.39
18819;BME280;9537;45.594;9.294;2023-09-07T01:41:20;100128.22;;;19.68;75.26
18819;BME280;9537;45.594;9.294;2023-09-07T01:42:21;100123.47;;;19.70;74.97
18819;BME280;9537;45.594;9.294;2023-09-07T01:43:22;100127.19;;;19.69;75.16
18819;BME280;9537;45.594;9.294;2023-09-07T01:44:24;100122.66;;;19.70;75.06
18819;BME280;9537;45.594;9.294;2023-09-07T01:45:27;100123.28;;;19.65;75.42
18819;BME280;9537;45.594;9.294;2023-09-07T01:46:28;100123.72;;;19.62;75.37
18819;BME280;9537;45.594;9.294;2023-09-07T01:47:29;100121.44;;;19.66;75.28
18819;BME280;9537;45.594;9.294;2023-09-07T01:48:31;100126.78;;;19.66;75.03
18819;BME280;9537;45.594;9.294;2023-09-07T01:49:32;100127.00;;;19.64;75.13
18819;BME280;9537;45.594;9.294;2023-09-07T01:50:33;100125.38;;;19.63;74.96
18819;BME280;9537;45.594;9.294;2023-09-07T01:51:34;100115.47;;;19.64;75.17
18819;BME280;9537;45.594;9.294;2023-09-07T01:52:37;100122.03;;;19.68;74.99
18819;BME280;9537;45.594;9.294;2023-09-07T01:53:38;100120.00;;;19.63;75.15
18819;BME280;9537;45.594;9.294;2023-09-07T01:54:40;100130.13;;;19.61;75.00
18819;BME280;9537;45.594;9.294;2023-09-07T01:55:40;100124.16;;;19.59;75.03
18819;BME280;9537;45.594;9.294;2023-09-07T01:56:42;100119.84;;;19.58;75.11
18819;BME280;9537;45.594;9.294;2023-09-07T01:57:43;100125.56;;;19.62;74.98
18819;BME280;9537;45.594;9.294;2023-09-07T01:58:45;100126.38;;;19.62;74.97
18819;BME280;9537;45.594;9.294;2023-09-07T01:59:46;100131.56;;;19.57;75.45
18819;BME280;9537;45.594;9.294;2023-09-07T02:00:48;100128.47;;;19.60;75.41
18819;BME280;9537;45.594;9.294;2023-09-07T02:01:49;100130.75;;;19.56;75.66
18819;BME280;9537;45.594;9.294;2023-09-07T02:02:52;100129.50;;;19.59;75.73
18819;BME280;9537;45.594;9.294;2023-09-07T02:03:53;100127.06;;;19.57;75.85
18819;BME280;9537;45.594;9.294;2023-09-07T02:04:54;100121.47;;;19.59;75.59
18819;BME280;9537;45.594;9.294;2023-09-07T02:05:55;100129.31;;;19.61;76.17
18819;BME280;9537;45.594;9.294;2023-09-07T02:06:57;100129.31;;;19.61;76.24
18819;BME280;9537;45.594;9.294;2023-09-07T02:07:59;100125.84;;;19.53;76.25
18819;BME280;9537;45.594;9.294;2023-09-07T02:09:01;100124.59;;;19.56;76.07
18819;BME280;9537;45.594;9.294;2023-09-07T02:10:05;100126.22;;;19.57;75.57
18819;BME280;9537;45.594;9.294;2023-09-07T02:11:07;100134.50;;;19.55;75.13
18819;BME280;9537;45.594;9.294;2023-09-07T02:12:08;100132.03;;;19.54;75.13
18819;BME280;9537;45.594;9.294;2023-09-07T02:13:11;100133.06;;;19.53;74.79
18819;BME280;9537;45.594;9.294;2023-09-07T02:14:12;100131.66;;;19.50;75.04
18819;BME280;9537;45.594;9.294;2023-09-07T02:15:14;100126.72;;;19.47;75.00
18819;BME280;9537;45.594;9.294;2023-09-07T02:16:14;100125.09;;;19.46;75.29
18819;BME280;9537;45.594;9.294;2023-09-07T02:17:15;100128.59;;;19.47;75.34
18819;BME280;9537;45.594;9.294;2023-09-07T02:18:18;100125.69;;;19.48;75.30
18819;BME280;9537;45.594;9.294;2023-09-07T02:19:19;100127.78;;;19.46;75.12
18819;BME280;9537;45.594;9.294;2023-09-07T02:20:22;100131.91;;;19.42;75.24
18819;BME280;9537;45.594;9.294;2023-09-07T02:21:23;100133.78;;;19.42;75.13
18819;BME280;9537;45.594;9.294;2023-09-07T02:22:25;100126.81;;;19.41;75.43
18819;BME280;9537;45.594;9.294;2023-09-07T02:23:27;100124.56;;;19.38;75.17
18819;BME280;9537;45.594;9.294;2023-09-07T02:24:28;100132.97;;;19.41;75.01
18819;BME280;9537;45.594;9.294;2023-09-07T02:25:30;100126.84;;;19.34;75.52
18819;BME280;9537;45.594;9.294;2023-09-07T02:26:31;100133.03;;;19.34;75.30
18819;BME280;9537;45.594;9.294;2023-09-07T02:27:32;100132.44;;;19.32;75.41
18819;BME280;9537;45.594;9.294;2023-09-07T02:28:34;100124.59;;;19.31;75.62
18819;BME280;9537;45.594;9.294;2023-09-07T02:29:35;100128.09;;;19.31;75.94
18819;BME280;9537;45.594;9.294;2023-09-07T02:30:37;100130.19;;;19.29;75.76
18819;BME280;9537;45.594;9.294;2023-09-07T02:31:38;100132.88;;;19.29;75.81
18819;BME280;9537;45.594;9.294;2023-09-07T02:32:42;100127.50;;;19.29;75.70
18819;BME280;9537;45.594;9.294;2023-09-07T02:33:42;100128.09;;;19.31;75.33
18819;BME280;9537;45.594;9.294;2023-09-07T02:34:44;100137.97;;;19.31;75.36
18819;BME280;9537;45.594;9.294;2023-09-07T02:35:45;100129.56;;;19.27;75.42
18819;BME280;9537;45.594;9.294;2023-09-07T02:36:48;100130.00;;;19.24;75.54
18819;BME280;9537;45.594;9.294;2023-09-07T02:37:49;100138.69;;;19.20;75.86
18819;BME280;9537;45.594;9.294;2023-09-07T02:38:53;100134.19;;;19.20;75.49
18819;BME280;9537;45.594;9.294;2023-09-07T02:39:53;100130.66;;;19.20;75.85
18819;BME280;9537;45.594;9.294;2023-09-07T02:40:56;100131.91;;;19.17;76.35
18819;BME280;9537;45.594;9.294;2023-09-07T02:41:56;100130.06;;;19.18;76.48
18819;BME280;9537;45.594;9.294;2023-09-07T02:42:58;100136.84;;;19.20;76.36
18819;BME280;9537;45.594;9.294;2023-09-07T02:43:59;100133.56;;;19.18;76.45
18819;BME280;9537;45.594;9.294;2023-09-07T02:45:01;100135.19;;;19.19;77.00
18819;BME280;9537;45.594;9.294;2023-09-07T02:46:01;100134.00;;;19.15;77.27
18819;BME280;9537;45.594;9.294;2023-09-07T02:47:02;100131.91;;;19.17;77.20
18819;BME280;9537;45.594;9.294;2023-09-07T02:48:05;100139.13;;;19.17;76.82
18819;BME280;9537;45.594;9.294;2023-09-07T02:49:06;100141.00;;;19.16;76.93
18819;BME280;9537;45.594;9.294;2023-09-07T02:50:08;100133.78;;;19.17;76.82
18819;BME280;9537;45.594;9.294;2023-09-07T02:51:09;100135.44;;;19.18;76.88
18819;BME280;9537;45.594;9.294;2023-09-07T02:52:11;100133.19;;;19.15;76.88
18819;BME280;9537;45.594;9.294;2023-09-07T02:53:12;100137.50;;;19.16;76.63
18819;BME280;9537;45.594;9.294;2023-09-07T02:54:15;100138.13;;;19.11;76.69
18819;BME280;9537;45.594;9.294;2023-09-07T02:55:16;100140.00;;;19.10;76.76
18819;BME280;9537;45.594;9.294;2023-09-07T02:56:18;100128.69;;;19.08;76.83
18819;BME280;9537;45.594;9.294;2023-09-07T02:57:18;100137.75;;;19.07;76.88
18819;BME280;9537;45.594;9.294;2023-09-07T02:58:21;100134.03;;;19.08;76.92
18819;BME280;9537;45.594;9.294;2023-09-07T02:59:22;100131.34;;;19.08;76.77
18819;BME280;9537;45.594;9.294;2023-09-07T03:00:23;100135.47;;;19.11;76.91
18819;BME280;9537;45.594;9.294;2023-09-07T03:01:24;100130.72;;;19.13;76.44
18819;BME280;9537;45.594;9.294;2023-09-07T03:02:27;100138.75;;;19.13;76.86
18819;BME280;9537;45.594;9.294;2023-09-07T03:03:28;100135.25;;;19.12;76.83
18819;BME280;9537;45.594;9.294;2023-09-07T03:04:30;100132.78;;;19.11;76.84
18819;BME280;9537;45.594;9.294;2023-09-07T03:05:31;100137.94;;;19.12;77.00
18819;BME280;9537;45.594;9.294;2023-09-07T03:06:33;100141.41;;;19.13;76.62
18819;BME280;9537;45.594;9.294;2023-09-07T03:07:34;100147.81;;;19.12;76.74
18819;BME280;9537;45.594;9.294;2023-09-07T03:08:35;100137.69;;;19.14;76.93
18819;BME280;9537;45.594;9.294;2023-09-07T03:09:38;100140.38;;;19.14;76.95
18819;BME280;9537;45.594;9.294;2023-09-07T03:10:39;100139.78;;;19.12;76.57
18819;BME280;9537;45.594;9.294;2023-09-07T03:11:41;100140.81;;;19.11;76.96
18819;BME280;9537;45.594;9.294;2023-09-07T03:12:42;100143.91;;;19.15;76.67
18819;BME280;9537;45.594;9.294;2023-09-07T03:13:43;100149.25;;;19.15;76.54
18819;BME280;9537;45.594;9.294;2023-09-07T03:14:45;100147.22;;;19.10;76.09
18819;BME280;9537;45.594;9.294;2023-09-07T03:15:46;100143.53;;;19.04;76.41
18819;BME280;9537;45.594;9.294;2023-09-07T03:16:46;100145.59;;;19.02;76.30
18819;BME280;9537;45.594;9.294;2023-09-07T03:17:50;100140.09;;;18.97;76.28
18819;BME280;9537;45.594;9.294;2023-09-07T03:18:51;100141.31;;;19.01;75.99
18819;BME280;9537;45.594;9.294;2023-09-07T03:19:53;100146.41;;;19.03;75.90
18819;BME280;9537;45.594;9.294;2023-09-07T03:20:54;100147.84;;;19.05;75.87
18819;BME280;9537;45.594;9.294;2023-09-07T03:21:57;100140.66;;;19.06;76.10
18819;BME280;9537;45.594;9.294;2023-09-07T03:22:57;100141.06;;;19.03;75.97
18819;BME280;9537;45.594;9.294;2023-09-07T03:23:59;100148.53;;;19.01;76.32
18819;BME280;9537;45.594;9.294;2023-09-07T03:25:01;100144.59;;;19.03;76.40
18819;BME280;9537;45.594;9.294;2023-09-07T03:26:03;100149.72;;;19.05;76.38
18819;BME280;9537;45.594;9.294;2023-09-07T03:27:04;100144.59;;;19.03;76.47
18819;BME280;9537;45.594;9.294;2023-09-07T03:28:06;100145.59;;;19.02;76.40
18819;BME280;9537;45.594;9.294;2023-09-07T03:29:07;100147.91;;;18.99;76.38
18819;BME280;9537;45.594;9.294;2023-09-07T03:30:09;100148.13;;;18.97;76.73
18819;BME280;9537;45.594;9.294;2023-09-07T03:31:10;100149.97;;;18.97;76.48
18819;BME280;9537;45.594;9.294;2023-09-07T03:32:12;100153.88;;;18.94;76.60
18819;BME280;9537;45.594;9.294;2023-09-07T03:33:12;100148.34;;;18.96;76.71
18819;BME280;9537;45.594;9.294;2023-09-07T03:34:14;100145.47;;;18.97;76.82
18819;BME280;9537;45.594;9.294;2023-09-07T03:35:15;100139.06;;;18.98;76.68
18819;BME280;9537;45.594;9.294;2023-09-07T03:36:17;100146.47;;;18.96;77.15
18819;BME280;9537;45.594;9.294;2023-09-07T03:37:18;100150.41;;;18.94;77.25
18819;BME280;9537;45.594;9.294;2023-09-07T03:38:19;100144.03;;;18.95;77.28
18819;BME280;9537;45.594;9.294;2023-09-07T03:39:20;100141.56;;;18.93;77.12
18819;BME280;9537;45.594;9.294;2023-09-07T03:40:24;100148.16;;;18.90;77.01
18819;BME280;9537;45.594;9.294;2023-09-07T03:41:25;100148.78;;;18.93;77.11
18819;BME280;9537;45.594;9.294;2023-09-07T03:42:30;100148.97;;;18.91;77.17
18819;BME280;9537;45.594;9.294;2023-09-07T03:43:31;100142.81;;;18.90;77.23
18819;BME280;9537;45.594;9.294;2023-09-07T03:44:33;100138.69;;;18.95;77.38
18819;BME280;9537;45.594;9.294;2023-09-07T03:45:34;100137.25;;;18.92;77.33
18819;BME280;9537;45.594;9.294;2023-09-07T03:46:35;100141.56;;;18.93;77.45
18819;BME280;9537;45.594;9.294;2023-09-07T03:47:37;100136.59;;;18.97;77.30
18819;BME280;9537;45.594;9.294;2023-09-07T03:48:39;100133.53;;;18.93;77.24
18819;BME280;9537;45.594;9.294;2023-09-07T03:49:39;100129.22;;;18.92;77.25
18819;BME280;9537;45.594;9.294;2023-09-07T03:50:41;100127.34;;;18.93;77.01
18819;BME280;9537;45.594;9.294;2023-09-07T03:51:42;100134.16;;;18.88;77.44
18819;BME280;9537;45.594;9.294;2023-09-07T03:52:44;100131.72;;;18.87;77.36
18819;BME280;9537;45.594;9.294;2023-09-07T03:53:44;100139.13;;;18.85;77.46
18819;BME280;9537;45.594;9.294;2023-09-07T03:54:46;100134.00;;;18.83;77.25
18819;BME280;9537;45.594;9.294;2023-09-07T03:55:49;100132.97;;;18.84;77.08
18819;BME280;9537;45.594;9.294;2023-09-07T03:56:49;100134.00;;;18.83;76.86
18819;BME280;9537;45.594;9.294;2023-09-07T03:57:51;100134.00;;;18.83;77.03
18819;BME280;9537;45.594;9.294;2023-09-07T03:58:52;100135.69;;;18.78;77.24
18819;BME280;9537;45.594;9.294;2023-09-07T03:59:54;100132.19;;;18.77;77.66
18819;BME280;9537;45.594;9.294;2023-09-07T04:00:58;100127.66;;;18.78;77.61
18819;BME280;9537;45.594;9.294;2023-09-07T04:01:59;100133.41;;;18.81;77.59
18819;BME280;9537;45.594;9.294;2023-09-07T04:03:01;100129.28;;;18.79;77.92
18819;BME280;9537;45.594;9.294;2023-09-07T04:04:03;100132.78;;;18.79;77.91
18819;BME280;9537;45.594;9.294;2023-09-07T04:05:05;100129.91;;;18.81;77.42
18819;BME280;9537;45.594;9.294;2023-09-07T04:06:06;100129.09;;;18.80;77.57
18819;BME280;9537;45.594;9.294;2023-09-07T04:07:08;100134.25;;;18.75;77.79
18819;BME280;9537;45.594;9.294;2023-09-07T04:08:08;100134.66;;;18.72;77.21
18819;BME280;9537;45.594;9.294;2023-09-07T04:09:11;100136.94;;;18.75;77.53
18819;BME280;9537;45.594;9.294;2023-09-07T04:10:11;100135.69;;;18.78;77.32
18819;BME280;9537;45.594;9.294;2023-09-07T04:11:13;100132.41;;;18.76;77.20
18819;BME280;9537;45.594;9.294;2023-09-07T04:12:15;100123.75;;;18.74;77.42
18819;BME280;9537;45.594;9.294;2023-09-07T04:13:16;100133.22;;;18.76;77.47
18819;BME280;9537;45.594;9.294;2023-09-07T04:14:18;100127.25;;;18.74;77.47
18819;BME280;9537;45.594;9.294;2023-09-07T04:15:18;100122.53;;;18.69;77.27
18819;BME280;9537;45.594;9.294;2023-09-07T04:16:20;100127.66;;;18.71;77.40
18819;BME280;9537;45.594;9.294;2023-09-07T04:17:21;100127.25;;;18.74;77.41
18819;BME280;9537;45.594;9.294;2023-09-07T04:18:23;100131.59;;;18.75;77.34
18819;BME280;9537;45.594;9.294;2023-09-07T04:19:24;100130.94;;;18.73;77.83
18819;BME280;9537;45.594;9.294;2023-09-07T04:20:25;100123.75;;;18.74;77.50
18819;BME280;9537;45.594;9.294;2023-09-07T04:21:26;100126.44;;;18.74;77.43
18819;BME280;9537;45.594;9.294;2023-09-07T04:22:27;100122.28;;;18.71;77.96
18819;BME280;9537;45.594;9.294;2023-09-07T04:23:29;100120.06;;;18.68;77.80
18819;BME280;9537;45.594;9.294;2023-09-07T04:24:30;100124.97;;;18.71;77.62
18819;BME280;9537;45.594;9.294;2023-09-07T04:25:30;100120.47;;;18.72;77.37
18819;BME280;9537;45.594;9.294;2023-09-07T04:26:34;100119.03;;;18.69;77.69
18819;BME280;9537;45.594;9.294;2023-09-07T04:27:35;100127.25;;;18.67;77.74
18819;BME280;9537;45.594;9.294;2023-09-07T04:28:35;100129.13;;;18.67;77.79
18819;BME280;9537;45.594;9.294;2023-09-07T04:29:37;100127.88;;;18.69;77.55
18819;BME280;9537;45.594;9.294;2023-09-07T04:30:39;100130.31;;;18.71;77.60
18819;BME280;9537;45.594;9.294;2023-09-07T04:31:41;100129.31;;;18.72;77.66
18819;BME280;9537;45.594;9.294;2023-09-07T04:32:41;100130.94;;;18.73;77.73
18819;BME280;9537;45.594;9.294;2023-09-07T04:33:43;100128.09;;;18.75;77.87
18819;BME280;9537;45.594;9.294;2023-09-07T04:34:44;100132.59;;;18.74;78.05
18819;BME280;9537;45.594;9.294;2023-09-07T04:35:46;100121.09;;;18.74;77.84
18819;BME280;9537;45.594;9.294;2023-09-07T04:36:47;100124.97;;;18.71;77.73
18819;BME280;9537;45.594;9.294;2023-09-07T04:37:49;100121.47;;;18.71;78.08
18819;BME280;9537;45.594;9.294;2023-09-07T04:38:49;100120.91;;;18.68;78.18
18819;BME280;9537;45.594;9.294;2023-09-07T04:39:52;100128.06;;;18.68;78.18
18819;BME280;9537;45.594;9.294;2023-09-07T04:40:53;100127.88;;;18.69;78.05
18819;BME280;9537;45.594;9.294;2023-09-07T04:41:56;100130.31;;;18.71;77.89
18819;BME280;9537;45.594;9.294;2023-09-07T04:42:57;100121.91;;;18.74;77.96
18819;BME280;9537;45.594;9.294;2023-09-07T04:43:59;100126.44;;;18.74;77.99
18819;BME280;9537;45.594;9.294;2023-09-07T04:44:59;100123.16;;;18.72;77.89
18819;BME280;9537;45.594;9.294;2023-09-07T04:46:01;100126.84;;;18.71;77.50
18819;BME280;9537;45.594;9.294;2023-09-07T04:47:03;100131.97;;;18.72;77.39
18819;BME280;9537;45.594;9.294;2023-09-07T04:48:05;100128.69;;;18.70;77.52
18819;BME280;9537;45.594;9.294;2023-09-07T04:49:07;100128.94;;;18.68;77.44
18819;BME280;9537;45.594;9.294;2023-09-07T04:50:08;100124.59;;;18.67;77.53
18819;BME280;9537;45.594;9.294;2023-09-07T04:51:10;100126.84;;;18.71;77.77
18819;BME280;9537;45.594;9.294;2023-09-07T04:52:12;100123.78;;;18.67;77.83
18819;BME280;9537;45.594;9.294;2023-09-07T04:53:14;100121.72;;;18.69;77.69
18819;BME280;9537;45.594;9.294;2023-09-07T04:54:15;100126.25;;;18.68;77.91
18819;BME280;9537;45.594;9.294;2023-09-07T04:55:17;100130.75;;;18.68;78.21
18819;BME280;9537;45.594;9.294;2023-09-07T04:56:17;100129.13;;;18.67;77.91
18819;BME280;9537;45.594;9.294;2023-09-07T04:57:22;100127.50;;;18.66;78.18
18819;BME280;9537;45.594;9.294;2023-09-07T04:58:22;100134.47;;;18.67;78.17
18819;BME280;9537;45.594;9.294;2023-09-07T04:59:24;100132.84;;;18.66;78.04
18819;BME280;9537;45.594;9.294;2023-09-07T05:00:25;100138.19;;;18.66;77.77
18819;BME280;9537;45.594;9.294;2023-09-07T05:01:27;100133.66;;;18.66;78.11
18819;BME280;9537;45.594;9.294;2023-09-07T05:02:27;100130.16;;;18.66;78.14
18819;BME280;9537;45.594;9.294;2023-09-07T05:03:29;100139.44;;;18.63;77.94
18819;BME280;9537;45.594;9.294;2023-09-07T05:04:30;100128.50;;;18.65;77.88
18819;BME280;9537;45.594;9.294;2023-09-07T05:05:31;100134.91;;;18.64;78.16
18819;BME280;9537;45.594;9.294;2023-09-07T05:06:32;100137.97;;;18.67;77.92
18819;BME280;9537;45.594;9.294;2023-09-07T05:07:37;100144.97;;;18.68;78.11
18819;BME280;9537;45.594;9.294;2023-09-07T05:08:38;100140.03;;;18.65;78.42
18819;BME280;9537;45.594;9.294;2023-09-07T05:09:39;100136.75;;;18.63;78.39
18819;BME280;9537;45.594;9.294;2023-09-07T05:10:41;100140.25;;;18.64;78.73
18819;BME280;9537;45.594;9.294;2023-09-07T05:11:42;100136.75;;;18.63;78.64
18819;BME280;9537;45.594;9.294;2023-09-07T05:12:45;100139.22;;;18.65;78.65
18819;BME280;9537;45.594;9.294;2023-09-07T05:13:47;100136.53;;;18.65;78.89
18819;BME280;9537;45.594;9.294;2023-09-07T05:14:48;100138.19;;;18.66;78.86
18819;BME280;9537;45.594;9.294;2023-09-07T05:15:49;100138.41;;;18.64;79.01
18819;BME280;9537;45.594;9.294;2023-09-07T05:16:50;100133.66;;;18.66;78.75
18819;BME280;9537;45.594;9.294;2023-09-07T05:17:53;100136.34;;;18.66;78.67
18819;BME280;9537;45.594;9.294;2023-09-07T05:18:53;100133.66;;;18.66;78.67
18819;BME280;9537;45.594;9.294;2023-09-07T05:19:55;100144.56;;;18.65;78.25
18819;BME280;9537;45.594;9.294;2023-09-07T05:20:56;100142.31;;;18.62;78.68
18819;BME280;9537;45.594;9.294;2023-09-07T05:21:57;100137.59;;;18.64;78.63
18819;BME280;9537;45.594;9.294;2023-09-07T05:22:58;100142.69;;;18.65;78.55
18819;BME280;9537;45.594;9.294;2023-09-07T05:24:01;100143.97;;;18.63;78.79
18819;BME280;9537;45.594;9.294;2023-09-07T05:25:02;100146.41;;;18.64;78.87
18819;BME280;9537;45.594;9.294;2023-09-07T05:26:04;100144.19;;;18.61;78.84